Time;durP1;ratioP1;P1;durP2;ratioP2;P2;SDS_P1;SDS_P2;PMS_P1;PMS_P2;Temp;Humidity;BMP_temperature;BMP_pressure;BME280_temperature;BME280_humidity;BME280_pressure;Samples;Min_cycle;Max_cycle;Signal;HPM_P1;HPM_P2
2023/01/11 00:00:23;;;;;;;1.27;0.97;;;19.50;43.30;;;;;;5015752;28;20492;-72
2023/01/11 00:02:55;;;;;;;1.03;0.80;;;19.50;43.40;;;;;;5015209;28;20230;-73
2023/01/11 00:05:20;;;;;;;0.70;0.60;;;19.50;44.10;;;;;;5015814;28;20223;-72
2023/01/11 00:07:46;;;;;;;0.73;0.60;;;19.50;43.50;;;;;;5015587;28;20462;-73
2023/01/11 00:10:11;;;;;;;0.80;0.80;;;19.50;43.50;;;;;;5013666;28;20254;-73
2023/01/11 00:12:37;;;;;;;0.87;0.70;;;19.50;43.50;;;;;;5013790;28;20226;-73
2023/01/11 00:15:03;;;;;;;0.80;0.70;;;19.50;43.50;;;;;;5008231;28;20246;-72
2023/01/11 00:17:28;;;;;;;0.90;0.80;;;19.50;43.50;;;;;;5011054;28;20739;-72
2023/01/11 00:19:54;;;;;;;0.80;0.80;;;19.50;43.50;;;;;;5011161;28;20230;-72
2023/01/11 00:22:19;;;;;;;0.83;0.80;;;19.50;43.50;;;;;;5015261;28;20688;-73
2023/01/11 00:24:45;;;;;;;0.80;0.77;;;19.50;43.50;;;;;;5013343;28;20224;-73
2023/01/11 00:27:10;;;;;;;0.80;0.70;;;19.50;44.20;;;;;;5011242;28;20328;-73
2023/01/11 00:29:36;;;;;;;0.83;0.80;;;19.50;43.50;;;;;;5014405;28;20700;-73
2023/01/11 00:32:01;;;;;;;0.70;0.60;;;19.50;43.50;;;;;;5010675;28;20708;-72
2023/01/11 00:34:27;;;;;;;0.70;0.70;;;19.50;43.50;;;;;;5014524;28;20297;-73
2023/01/11 00:36:52;;;;;;;0.80;0.70;;;19.50;43.50;;;;;;5011472;28;20234;-72
2023/01/11 00:39:18;;;;;;;1.03;0.80;;;19.40;43.50;;;;;;5013749;28;20292;-72
2023/01/11 00:50:15;;;;;;;0.80;0.80;;;19.40;43.50;;;;;;4918152;29;20514;-72
2023/01/11 00:52:41;;;;;;;0.60;0.53;;;19.40;43.40;;;;;;4973864;28;20435;-73
2023/01/11 00:55:07;;;;;;;1.00;0.90;;;19.40;43.50;;;;;;5018774;28;20361;-73
2023/01/11 00:57:33;;;;;;;1.00;0.73;;;19.40;43.50;;;;;;4995505;28;20306;-72
2023/01/11 00:59:59;;;;;;;0.90;0.70;;;19.40;43.50;;;;;;5015452;28;20447;-73
2023/01/11 01:02:24;;;;;;;1.23;0.63;;;19.40;43.50;;;;;;5014426;28;20214;-72
2023/01/11 01:04:50;;;;;;;0.70;0.60;;;19.40;43.50;;;;;;5011116;28;20447;-72
2023/01/11 01:07:15;;;;;;;0.73;0.70;;;19.40;43.60;;;;;;5014433;28;20222;-73
2023/01/11 01:09:41;;;;;;;0.80;0.60;;;19.40;43.50;;;;;;5012136;28;20222;-72
2023/01/11 01:12:08;;;;;;;0.70;0.67;;;19.40;43.50;;;;;;5014817;28;20309;-72
2023/01/11 01:14:34;;;;;;;1.07;1.07;;;19.40;43.40;;;;;;5018256;28;20631;-73
2023/01/11 01:17:07;;;;;;;0.70;0.70;;;19.40;43.50;;;;;;5001966;28;20428;-73
2023/01/11 01:19:35;;;;;;;0.70;0.50;;;19.40;43.50;;;;;;5018086;28;20480;-72
2023/01/11 01:22:01;;;;;;;0.80;0.60;;;19.40;43.50;;;;;;5003935;28;20559;-73
2023/01/11 01:24:28;;;;;;;0.80;0.70;;;19.40;43.50;;;;;;5019302;28;21448;-72
2023/01/11 01:26:54;;;;;;;1.07;0.80;;;19.40;43.50;;;;;;5018938;28;20231;-73
2023/01/11 01:29:20;;;;;;;0.90;0.70;;;19.40;43.60;;;;;;5014435;28;20514;-73
2023/01/11 01:31:45;;;;;;;0.77;0.60;;;19.40;43.50;;;;;;5016763;28;20505;-73
2023/01/11 01:34:12;;;;;;;0.60;0.50;;;19.40;43.50;;;;;;5020646;28;20231;-72
2023/01/11 01:36:38;;;;;;;0.70;0.60;;;19.40;43.50;;;;;;5015075;28;20227;-72
2023/01/11 01:39:05;;;;;;;0.80;0.63;;;19.40;43.60;;;;;;5013364;28;20479;-73
2023/01/11 01:41:30;;;;;;;0.80;0.67;;;19.40;43.60;;;;;;5016395;28;21057;-73
2023/01/11 01:43:58;;;;;;;0.70;0.60;;;19.40;43.60;;;;;;5015373;28;20442;-72
2023/01/11 01:46:29;;;;;;;0.67;0.60;;;19.40;43.60;;;;;;5016507;28;20590;-72
2023/01/11 01:49:06;;;;;;;0.70;0.70;;;19.40;43.60;;;;;;5013607;28;20473;-73
2023/01/11 01:51:40;;;;;;;0.60;0.60;;;19.40;43.60;;;;;;5012789;28;21837;-72
2023/01/11 01:54:10;;;;;;;0.60;0.50;;;19.40;43.60;;;;;;5016649;28;20538;-73
2023/01/11 01:56:46;;;;;;;0.70;0.60;;;19.40;43.60;;;;;;5014592;28;20465;-72
2023/01/11 01:59:15;;;;;;;0.60;0.50;;;19.40;43.60;;;;;;5000013;28;20422;-72
2023/01/11 02:01:47;;;;;;;0.80;0.60;;;19.40;43.70;;;;;;5014284;28;20944;-72
2023/01/11 02:04:28;;;;;;;0.60;0.50;;;19.40;43.60;;;;;;5013953;28;20422;-72
2023/01/11 02:07:09;;;;;;;0.67;0.60;;;19.40;43.70;;;;;;5013480;28;20426;-73
2023/01/11 02:09:41;;;;;;;0.90;0.57;;;19.40;44.40;;;;;;5012054;28;20452;-73
2023/01/11 02:12:07;;;;;;;0.70;0.70;;;19.40;43.70;;;;;;5016334;28;20490;-72
2023/01/11 02:14:36;;;;;;;0.67;0.60;;;19.40;43.70;;;;;;4998424;28;20526;-72
2023/01/11 02:17:01;;;;;;;0.60;0.50;;;19.40;43.60;;;;;;5015832;28;20215;-72
2023/01/11 02:19:51;;;;;;;0.70;0.60;;;19.40;43.70;;;;;;5016723;28;20450;-73
2023/01/11 02:22:32;;;;;;;0.70;0.70;;;19.40;43.70;;;;;;5014316;28;20219;-72
2023/01/11 02:25:20;;;;;;;0.70;0.60;;;19.40;43.60;;;;;;5016069;28;20427;-72
2023/01/11 02:28:19;;;;;;;0.70;0.60;;;19.40;43.70;;;;;;5002761;28;20947;-72
2023/01/11 02:31:00;;;;;;;0.60;0.50;;;19.40;43.70;;;;;;5017912;28;20446;-72
2023/01/11 02:33:44;;;;;;;0.70;0.60;;;19.40;43.60;;;;;;5014964;28;20414;-72
2023/01/11 02:36:21;;;;;;;0.70;0.50;;;19.40;43.70;;;;;;5015096;28;20941;-72
2023/01/11 02:39:12;;;;;;;0.60;0.50;;;19.40;43.70;;;;;;5015837;28;20461;-72
2023/01/11 02:45:02;;;;;;;0.77;0.60;;;19.40;43.70;;;;;;5013333;28;20501;-72
2023/01/11 02:47:49;;;;;;;0.60;0.50;;;19.40;43.70;;;;;;5016156;28;20555;-72
2023/01/11 02:50:41;;;;;;;0.60;0.60;;;19.40;43.60;;;;;;5015448;28;20433;-72
2023/01/11 02:53:21;;;;;;;0.70;0.60;;;19.40;43.60;;;;;;5015745;28;21469;-72
2023/01/11 02:55:51;;;;;;;0.60;0.50;;;19.40;43.50;;;;;;5013865;28;20430;-73
2023/01/11 02:58:20;;;;;;;0.90;0.60;;;19.40;43.50;;;;;;5015787;28;20440;-72
2023/01/11 03:00:46;;;;;;;0.60;0.53;;;19.40;43.50;;;;;;5016605;28;20419;-73
2023/01/11 03:03:23;;;;;;;0.70;0.50;;;19.40;43.50;;;;;;5016676;28;20425;-72
2023/01/11 03:05:56;;;;;;;0.70;0.50;;;19.40;43.50;;;;;;5017966;28;20533;-73
2023/01/11 03:08:43;;;;;;;0.63;0.50;;;19.40;43.50;;;;;;5016107;28;20484;-72
2023/01/11 03:15:17;;;;;;;0.60;0.50;;;19.40;43.40;;;;;;4915226;28;20430;-72
2023/01/11 03:18:19;;;;;;;0.60;0.60;;;19.40;43.50;;;;;;4914810;28;20908;-73
2023/01/11 03:20:56;;;;;;;0.73;0.70;;;19.40;43.40;;;;;;5015159;28;20413;-72
2023/01/11 03:23:28;;;;;;;0.70;0.53;;;19.40;43.50;;;;;;5009751;28;21247;-73
2023/01/11 03:26:00;;;;;;;0.60;0.50;;;19.40;43.50;;;;;;5015073;28;20544;-72
2023/01/11 03:29:03;;;;;;;0.67;0.60;;;19.40;43.50;;;;;;5014452;28;20456;-72
2023/01/11 03:31:34;;;;;;;0.70;0.60;;;19.40;43.50;;;;;;5010556;28;20451;-72
2023/01/11 03:34:26;;;;;;;0.60;0.43;;;19.40;43.50;;;;;;5012497;28;20442;-72
2023/01/11 03:37:14;;;;;;;0.60;0.60;;;19.40;43.50;;;;;;5013040;28;20433;-72
2023/01/11 03:39:47;;;;;;;0.60;0.50;;;19.40;43.50;;;;;;5014033;28;20438;-72
2023/01/11 03:42:16;;;;;;;0.70;0.60;;;19.40;43.50;;;;;;5014618;28;21012;-73
2023/01/11 03:44:45;;;;;;;0.60;0.50;;;19.40;43.50;;;;;;5014096;28;20438;-73
2023/01/11 03:47:13;;;;;;;0.60;0.50;;;19.40;43.50;;;;;;5013594;28;20431;-72
2023/01/11 03:49:59;;;;;;;0.70;0.60;;;19.40;43.50;;;;;;5013576;28;20581;-73
2023/01/11 03:52:32;;;;;;;0.70;0.50;;;19.40;43.60;;;;;;5013705;28;20782;-72
2023/01/11 03:55:01;;;;;;;0.70;0.60;;;19.40;43.50;;;;;;5014860;28;20435;-73
2023/01/11 03:57:38;;;;;;;0.70;0.50;;;19.40;43.50;;;;;;5016382;28;20435;-73
2023/01/11 04:00:06;;;;;;;0.60;0.50;;;19.40;43.40;;;;;;5014254;28;20484;-73
2023/01/11 04:02:40;;;;;;;0.60;0.50;;;19.40;43.50;;;;;;5012757;28;20438;-73
2023/01/11 04:05:08;;;;;;;0.70;0.60;;;19.40;43.40;;;;;;5013247;28;20455;-73
2023/01/11 04:07:33;;;;;;;1.13;1.03;;;19.40;43.50;;;;;;5015590;28;20462;-73
2023/01/11 04:09:59;;;;;;;0.60;0.60;;;19.40;43.40;;;;;;5014961;28;20551;-72
2023/01/11 04:12:25;;;;;;;0.80;0.60;;;19.40;43.40;;;;;;5015361;28;20317;-73
2023/01/11 04:14:51;;;;;;;0.60;0.50;;;19.40;43.50;;;;;;5015387;28;20266;-72
2023/01/11 04:17:16;;;;;;;0.70;0.50;;;19.40;43.50;;;;;;5017630;28;20215;-73
2023/01/11 04:19:42;;;;;;;0.70;0.50;;;19.40;43.50;;;;;;5017514;28;20227;-73
2023/01/11 04:22:07;;;;;;;0.70;0.60;;;19.40;43.50;;;;;;5017562;28;20226;-73
2023/01/11 04:24:33;;;;;;;0.60;0.50;;;19.40;43.50;;;;;;5021008;28;20218;-72
2023/01/11 04:26:58;;;;;;;0.60;0.50;;;19.40;43.40;;;;;;5019874;28;20242;-73
2023/01/11 04:29:24;;;;;;;0.70;0.60;;;19.40;43.50;;;;;;5021130;28;20215;-73
2023/01/11 04:31:49;;;;;;;1.23;0.50;;;19.40;43.50;;;;;;5019039;28;20226;-73
2023/01/11 04:34:15;;;;;;;0.80;0.50;;;19.40;43.50;;;;;;5018565;28;20226;-73
2023/01/11 04:36:40;;;;;;;0.70;0.50;;;19.40;43.50;;;;;;5001139;28;20234;-73
2023/01/11 04:39:09;;;;;;;2.00;0.77;;;19.40;43.40;;;;;;5016175;28;20238;-73
2023/01/11 04:44:22;;;;;;;0.70;0.40;;;19.40;43.50;;;;;;5018554;28;21354;-73
2023/01/11 04:46:48;;;;;;;0.70;0.60;;;19.40;43.50;;;;;;5014847;28;20427;-72
2023/01/11 04:49:13;;;;;;;0.60;0.50;;;19.40;43.50;;;;;;5021874;28;20227;-72
2023/01/11 04:51:39;;;;;;;0.67;0.57;;;19.40;43.50;;;;;;5021438;28;20277;-73
2023/01/11 04:54:05;;;;;;;0.60;0.50;;;19.40;43.50;;;;;;5020882;28;20218;-73
2023/01/11 04:56:30;;;;;;;0.70;0.60;;;19.40;43.40;;;;;;5017814;28;20314;-72
2023/01/11 04:58:56;;;;;;;0.60;0.50;;;19.40;43.40;;;;;;5015874;28;20262;-73
2023/01/11 05:01:22;;;;;;;0.90;0.60;;;19.40;43.40;;;;;;5015603;28;20227;-73
2023/01/11 05:03:47;;;;;;;0.60;0.50;;;19.40;43.40;;;;;;5019551;28;20230;-72
2023/01/11 05:06:14;;;;;;;0.83;0.50;;;19.40;43.40;;;;;;5015812;28;20305;-73
2023/01/11 05:08:44;;;;;;;1.77;0.57;;;19.40;43.40;;;;;;5016034;28;20235;-73
2023/01/11 05:11:09;;;;;;;0.60;0.43;;;19.40;43.30;;;;;;5005377;28;20800;-73
2023/01/11 05:13:40;;;;;;;0.60;0.50;;;19.40;43.40;;;;;;5014294;28;20436;-73
2023/01/11 05:16:24;;;;;;;0.60;0.40;;;19.40;43.30;;;;;;5015439;28;20243;-72
2023/01/11 05:18:57;;;;;;;0.60;0.50;;;19.50;43.20;;;;;;5013228;28;21039;-73
2023/01/11 05:21:26;;;;;;;0.73;0.60;;;19.50;43.20;;;;;;5015984;28;20443;-72
2023/01/11 05:23:52;;;;;;;0.60;0.50;;;19.50;43.20;;;;;;5018172;28;20431;-72
2023/01/11 05:26:23;;;;;;;0.63;0.60;;;19.50;43.20;;;;;;5014624;28;20450;-72
2023/01/11 05:28:50;;;;;;;0.60;0.50;;;19.50;43.10;;;;;;5009920;28;20561;-72
2023/01/11 05:31:17;;;;;;;0.60;0.50;;;19.50;43.10;;;;;;5011669;28;20457;-72
2023/01/11 05:33:43;;;;;;;0.60;0.60;;;19.50;43.10;;;;;;4997646;28;21256;-72
2023/01/11 05:36:15;;;;;;;0.60;0.50;;;19.50;43.20;;;;;;5016690;28;20450;-72
2023/01/11 05:38:41;;;;;;;0.63;0.50;;;19.50;43.10;;;;;;5012828;28;20521;-74
2023/01/11 05:41:08;;;;;;;0.70;0.50;;;19.50;43.10;;;;;;5010945;28;20438;-73
2023/01/11 05:45:27;;;;;;;0.60;0.50;;;19.50;43.30;;;;;;5014332;28;20760;-73
2023/01/11 05:46:25;;;;;;;1.27;1.17;;;19.50;43.20;;;;;;5014242;28;20433;-73
2023/01/11 05:48:51;;;;;;;0.60;0.40;;;19.50;43.30;;;;;;5007653;28;20447;-73
2023/01/11 05:51:17;;;;;;;0.60;0.50;;;19.50;43.30;;;;;;5010198;28;20518;-73
2023/01/11 05:53:42;;;;;;;1.00;0.60;;;19.50;43.40;;;;;;5016055;28;20215;-72
2023/01/11 05:56:08;;;;;;;0.87;0.50;;;19.50;43.30;;;;;;5012981;28;20226;-73
2023/01/11 05:58:33;;;;;;;0.63;0.40;;;19.50;43.30;;;;;;5013078;28;20277;-72
2023/01/11 06:00:59;;;;;;;0.50;0.40;;;19.50;43.30;;;;;;5013762;28;20225;-72
2023/01/11 06:03:25;;;;;;;0.77;0.60;;;19.50;43.30;;;;;;5015785;28;20215;-73
2023/01/11 06:05:52;;;;;;;0.70;0.50;;;19.50;43.30;;;;;;5015146;28;20219;-72
2023/01/11 06:08:18;;;;;;;0.70;0.40;;;19.50;43.30;;;;;;5016752;28;20430;-72
2023/01/11 06:10:52;;;;;;;0.60;0.40;;;19.50;43.30;;;;;;5014394;28;20527;-74
2023/01/11 06:13:27;;;;;;;0.67;0.50;;;19.50;43.30;;;;;;4990529;28;20414;-72
2023/01/11 06:15:58;;;;;;;0.83;0.50;;;19.50;43.30;;;;;;5012061;28;21030;-72
2023/01/11 06:18:24;;;;;;;0.60;0.50;;;19.50;43.40;;;;;;5012880;28;21004;-76
2023/01/11 06:20:51;;;;;;;0.63;0.50;;;19.50;43.40;;;;;;5010060;28;20416;-74
2023/01/11 06:23:16;;;;;;;0.60;0.50;;;19.50;43.30;;;;;;5000079;28;20211;-75
2023/01/11 06:25:43;;;;;;;0.77;0.70;;;19.50;43.30;;;;;;5015438;28;20976;-73
2023/01/11 06:28:09;;;;;;;0.90;0.67;;;19.50;43.20;;;;;;5015468;28;20233;-74
2023/01/11 06:30:34;;;;;;;0.90;0.60;;;19.50;43.10;;;;;;5000325;28;20415;-75
2023/01/11 06:33:06;;;;;;;0.77;0.50;;;19.50;43.10;;;;;;5009265;28;20449;-74
2023/01/11 06:35:35;;;;;;;0.80;0.50;;;19.50;43.20;;;;;;4997214;28;20223;-75
2023/01/11 06:38:01;;;;;;;0.60;0.50;;;19.50;43.20;;;;;;5015887;28;20455;-75
2023/01/11 06:40:27;;;;;;;0.70;0.50;;;19.50;43.20;;;;;;5013443;28;20439;-74
2023/01/11 06:42:53;;;;;;;0.63;0.50;;;19.50;43.30;;;;;;5016285;28;20218;-75
2023/01/11 06:45:18;;;;;;;0.60;0.40;;;19.50;43.40;;;;;;5014512;28;21000;-73
2023/01/11 06:47:44;;;;;;;0.70;0.60;;;19.50;43.40;;;;;;5013847;28;20235;-75
2023/01/11 06:50:10;;;;;;;0.60;0.50;;;19.50;43.30;;;;;;5014017;28;20223;-75
2023/01/11 06:52:35;;;;;;;0.70;0.50;;;19.50;43.40;;;;;;5013330;28;20254;-74
2023/01/11 06:55:01;;;;;;;0.60;0.40;;;19.50;43.50;;;;;;5012704;28;20310;-75
2023/01/11 06:57:27;;;;;;;0.80;0.60;;;19.50;43.40;;;;;;5016252;28;20708;-74
2023/01/11 06:59:53;;;;;;;0.60;0.50;;;19.50;43.50;;;;;;5015134;28;20427;-75
2023/01/11 07:02:18;;;;;;;0.60;0.50;;;19.50;43.50;;;;;;5015463;28;20760;-75
2023/01/11 07:04:44;;;;;;;0.60;0.50;;;19.50;43.50;;;;;;5014039;28;20235;-75
2023/01/11 07:07:09;;;;;;;0.63;0.50;;;19.50;43.50;;;;;;5014661;28;20231;-77
2023/01/11 07:09:35;;;;;;;0.60;0.50;;;19.50;43.50;;;;;;5013670;28;20219;-75
2023/01/11 07:12:00;;;;;;;0.70;0.50;;;19.50;43.60;;;;;;5016129;28;20219;-75
2023/01/11 07:14:26;;;;;;;0.80;0.60;;;19.50;43.60;;;;;;5012334;28;20222;-75
2023/01/11 07:16:51;;;;;;;1.17;0.50;;;19.50;43.60;;;;;;5013799;28;20231;-75
2023/01/11 07:19:17;;;;;;;0.60;0.50;;;19.50;43.60;;;;;;5015276;28;20226;-75
2023/01/11 07:21:43;;;;;;;0.90;0.60;;;19.50;43.60;;;;;;4998112;28;20214;-73
2023/01/11 07:24:09;;;;;;;0.70;0.40;;;19.50;43.70;;;;;;5014467;28;20239;-75
2023/01/11 07:26:40;;;;;;;3.27;0.80;;;19.50;43.60;;;;;;5014523;28;20449;-73
2023/01/11 07:29:08;;;;;;;0.70;0.50;;;19.50;43.60;;;;;;5011984;28;20298;-75
2023/01/11 07:31:33;;;;;;;0.70;0.50;;;19.50;43.60;;;;;;5011843;28;20423;-75
2023/01/11 07:33:59;;;;;;;0.90;0.60;;;19.50;43.60;;;;;;5013253;28;20805;-75
2023/01/11 07:36:24;;;;;;;0.77;0.50;;;19.50;43.70;;;;;;5003121;28;20677;-75
2023/01/11 07:38:50;;;;;;;0.60;0.50;;;19.50;43.70;;;;;;5015204;28;20287;-75
2023/01/11 07:43:59;;;;;;;0.60;0.50;;;19.40;43.50;;;;;;5009860;28;20262;-75
2023/01/11 07:46:25;;;;;;;0.90;0.60;;;19.40;43.60;;;;;;5014190;28;20437;-75
2023/01/11 07:48:50;;;;;;;0.77;0.50;;;19.50;43.70;;;;;;5000600;28;20243;-75
2023/01/11 07:51:19;;;;;;;0.70;0.50;;;19.50;43.70;;;;;;5013591;28;20234;-75
2023/01/11 07:53:45;;;;;;;2.50;0.50;;;19.50;43.70;;;;;;5012759;28;20217;-74
2023/01/11 07:56:11;;;;;;;0.80;0.60;;;19.50;43.80;;;;;;5012273;28;20419;-73
2023/01/11 07:58:36;;;;;;;0.60;0.47;;;19.50;43.70;;;;;;4992658;28;20451;-75
2023/01/11 08:01:03;;;;;;;0.70;0.60;;;19.50;43.70;;;;;;5012795;28;20504;-75
2023/01/11 08:03:28;;;;;;;0.60;0.50;;;19.50;43.80;;;;;;5013511;28;20698;-75
2023/01/11 08:05:54;;;;;;;0.73;0.50;;;19.40;43.60;;;;;;5010547;28;20430;-76
2023/01/11 08:08:19;;;;;;;0.67;0.50;;;19.50;43.80;;;;;;5010595;28;20230;-74
2023/01/11 08:10:45;;;;;;;0.60;0.50;;;19.50;43.80;;;;;;5013302;28;20977;-75
2023/01/11 08:15:57;;;;;;;3.33;0.60;;;19.50;43.90;;;;;;5012659;28;20736;-75
2023/01/11 08:18:22;;;;;;;0.80;0.53;;;19.40;43.80;;;;;;5014528;28;20436;-75
2023/01/11 08:20:51;;;;;;;0.70;0.50;;;19.40;43.80;;;;;;5011260;28;20502;-75
2023/01/11 08:23:17;;;;;;;0.60;0.50;;;19.40;43.70;;;;;;5012562;28;20685;-74
2023/01/11 08:25:43;;;;;;;0.60;0.50;;;19.40;43.80;;;;;;5012373;28;20462;-75
2023/01/11 08:28:10;;;;;;;0.60;0.50;;;19.40;43.80;;;;;;5012926;28;20523;-76
2023/01/11 08:30:37;;;;;;;1.23;0.50;;;19.40;43.80;;;;;;5014434;28;20222;-75
2023/01/11 08:33:04;;;;;;;0.60;0.47;;;19.40;43.80;;;;;;5011960;28;20967;-75
2023/01/11 08:35:31;;;;;;;0.60;0.50;;;19.40;43.80;;;;;;5013558;28;20533;-75
2023/01/11 08:37:56;;;;;;;0.80;0.60;;;19.40;43.80;;;;;;5010153;28;20429;-74
2023/01/11 08:40:24;;;;;;;1.57;0.50;;;19.50;43.90;;;;;;5013889;28;20442;-75
2023/01/11 08:42:54;;;;;;;1.40;0.50;;;19.40;43.80;;;;;;5012913;28;20218;-75
2023/01/11 08:45:19;;;;;;;0.87;0.50;;;19.40;43.90;;;;;;5013713;28;20444;-75
2023/01/11 08:47:45;;;;;;;0.60;0.50;;;19.40;43.80;;;;;;5002705;28;20427;-75
2023/01/11 08:50:11;;;;;;;0.70;0.50;;;19.40;43.90;;;;;;5013603;28;20222;-75
2023/01/11 08:52:37;;;;;;;1.20;0.60;;;19.40;44.00;;;;;;5013652;28;20453;-75
2023/01/11 08:55:06;;;;;;;1.37;0.60;;;19.40;44.00;;;;;;5012358;28;20222;-75
2023/01/11 08:57:31;;;;;;;0.60;0.50;;;19.40;44.10;;;;;;5017441;28;20219;-75
2023/01/11 08:59:57;;;;;;;1.00;0.60;;;19.40;44.10;;;;;;5019274;28;20460;-75
2023/01/11 09:02:22;;;;;;;0.70;0.60;;;19.40;44.20;;;;;;5015609;28;20237;-75
2023/01/11 09:04:48;;;;;;;0.70;0.50;;;19.40;44.10;;;;;;5017114;28;20210;-75
2023/01/11 09:07:13;;;;;;;0.60;0.50;;;19.40;44.20;;;;;;5017393;28;20222;-73
2023/01/11 09:09:40;;;;;;;0.63;0.50;;;19.40;44.10;;;;;;5015983;28;20231;-75
2023/01/11 09:12:05;;;;;;;0.70;0.50;;;19.40;44.20;;;;;;5014729;28;20234;-75
2023/01/11 09:14:31;;;;;;;1.47;0.60;;;19.40;44.20;;;;;;5015744;28;21043;-75
2023/01/11 09:16:57;;;;;;;0.90;0.60;;;19.40;44.20;;;;;;5013284;28;20219;-75
2023/01/11 09:19:22;;;;;;;0.80;0.50;;;19.40;44.20;;;;;;5015119;28;20227;-75
2023/01/11 09:21:48;;;;;;;1.00;0.70;;;19.40;44.20;;;;;;5018691;28;20226;-74
2023/01/11 09:24:14;;;;;;;0.67;0.50;;;19.40;44.20;;;;;;5014999;28;20223;-75
2023/01/11 09:26:42;;;;;;;0.63;0.50;;;19.40;44.20;;;;;;5016699;28;21180;-75
2023/01/11 09:29:07;;;;;;;0.70;0.60;;;19.40;44.20;;;;;;5014743;28;20226;-75
2023/01/11 09:31:33;;;;;;;1.00;0.67;;;19.40;44.20;;;;;;5017973;28;20437;-75
2023/01/11 09:33:58;;;;;;;0.70;0.60;;;19.40;44.20;;;;;;5015327;28;20634;-75
2023/01/11 09:36:26;;;;;;;0.97;0.50;;;19.40;44.20;;;;;;5014277;28;20297;-75
2023/01/11 09:38:55;;;;;;;0.60;0.40;;;19.40;44.20;;;;;;5012855;28;20594;-74
2023/01/11 09:41:30;;;;;;;0.70;0.60;;;19.40;44.20;;;;;;5015897;28;20412;-75
2023/01/11 09:44:14;;;;;;;0.70;0.60;;;19.40;44.20;;;;;;5014480;28;20440;-75
2023/01/11 09:46:44;;;;;;;0.60;0.50;;;19.40;44.20;;;;;;5014386;28;21255;-75
2023/01/11 09:49:17;;;;;;;0.70;0.60;;;19.40;44.20;;;;;;4999578;28;20488;-75
2023/01/11 09:51:44;;;;;;;0.90;0.60;;;19.40;44.20;;;;;;5017366;28;20426;-75
2023/01/11 09:54:17;;;;;;;2.00;0.60;;;19.40;44.20;;;;;;5011958;28;20514;-75
2023/01/11 09:56:59;;;;;;;3.03;0.60;;;19.40;44.20;;;;;;5015581;28;20414;-75
2023/01/11 09:59:49;;;;;;;0.70;0.60;;;19.40;44.20;;;;;;5017250;28;20440;-75
2023/01/11 10:02:33;;;;;;;0.70;0.50;;;19.40;44.30;;;;;;5012673;28;20484;-75
2023/01/11 10:05:22;;;;;;;0.60;0.50;;;19.40;44.10;;;;;;5012249;28;20427;-75
2023/01/11 10:07:56;;;;;;;0.70;0.60;;;19.40;44.10;;;;;;5012019;28;20419;-75
2023/01/11 10:10:47;;;;;;;1.83;0.90;;;19.40;44.10;;;;;;5016389;28;20801;-75
2023/01/11 10:13:57;;;;;;;0.60;0.50;;;19.40;44.20;;;;;;5014779;28;20496;-75
2023/01/11 10:16:35;;;;;;;0.67;0.50;;;19.40;44.20;;;;;;4981734;28;20431;-72
2023/01/11 10:19:40;;;;;;;0.60;0.50;;;19.40;44.20;;;;;;5005032;28;20500;-75
2023/01/11 10:22:14;;;;;;;0.70;0.63;;;19.40;44.20;;;;;;5012363;28;20484;-75
2023/01/11 10:25:29;;;;;;;0.60;0.50;;;19.40;44.20;;;;;;5014256;28;20468;-75
2023/01/11 10:28:06;;;;;;;0.67;0.50;;;19.40;44.10;;;;;;5017178;28;20410;-75
2023/01/11 10:42:09;;;;;;;0.60;0.50;;;19.40;44.20;;;;;;5010143;28;20451;-74
2023/01/11 10:44:49;;;;;;;0.70;0.70;;;19.40;44.20;;;;;;5013854;28;20427;-75
2023/01/11 10:47:19;;;;;;;0.63;0.60;;;19.40;44.20;;;;;;5014221;28;20431;-74
2023/01/11 10:49:51;;;;;;;2.73;0.70;;;19.40;44.20;;;;;;4996245;28;20557;-75
2023/01/11 10:52:28;;;;;;;1.20;0.70;;;19.40;44.20;;;;;;5017933;28;20956;-75
2023/01/11 10:54:56;;;;;;;0.70;0.60;;;19.40;44.20;;;;;;5014580;28;20436;-75
2023/01/11 10:58:02;;;;;;;0.70;0.50;;;19.40;44.20;;;;;;5012733;28;20468;-75
2023/01/11 11:00:40;;;;;;;0.60;0.50;;;19.40;44.20;;;;;;5011172;28;20572;-75
2023/01/11 11:03:22;;;;;;;0.60;0.60;;;19.40;44.20;;;;;;5014750;28;20512;-75
2023/01/11 11:06:03;;;;;;;1.30;0.60;;;19.40;44.20;;;;;;5015075;28;20434;-74
2023/01/11 11:08:47;;;;;;;0.60;0.50;;;19.40;44.20;;;;;;5012659;28;20957;-75
2023/01/11 11:11:17;;;;;;;0.80;0.70;;;19.40;44.20;;;;;;4998702;28;20421;-75
2023/01/11 11:14:17;;;;;;;0.70;0.63;;;19.40;44.20;;;;;;5014349;28;20498;-75
2023/01/11 11:17:06;;;;;;;0.63;0.50;;;19.40;44.20;;;;;;5014982;28;20420;-73
2023/01/11 11:19:32;;;;;;;0.73;0.60;;;19.40;44.20;;;;;;5013069;28;20453;-74
2023/01/11 11:21:59;;;;;;;0.70;0.60;;;19.40;44.10;;;;;;4996139;28;20746;-75
2023/01/11 11:24:36;;;;;;;0.80;0.60;;;19.40;44.20;;;;;;5014150;28;20449;-75
2023/01/11 11:27:26;;;;;;;0.70;0.70;;;19.40;44.20;;;;;;5015277;28;20444;-75
2023/01/11 11:29:55;;;;;;;0.80;0.60;;;19.40;44.20;;;;;;5014035;28;20431;-75
2023/01/11 11:32:36;;;;;;;0.73;0.60;;;19.40;44.20;;;;;;5011230;28;20429;-75
2023/01/11 11:35:02;;;;;;;0.80;0.70;;;19.40;44.10;;;;;;5011337;28;20423;-75
2023/01/11 11:37:32;;;;;;;1.87;0.73;;;19.40;44.20;;;;;;5010909;28;20463;-75
2023/01/11 11:39:58;;;;;;;0.70;0.63;;;19.40;44.20;;;;;;5012172;28;20231;-75
2023/01/11 11:42:24;;;;;;;0.70;0.60;;;19.40;44.20;;;;;;5015043;28;20417;-75
2023/01/11 11:45:14;;;;;;;1.00;0.60;;;19.40;44.20;;;;;;5010140;28;20517;-75
2023/01/11 11:47:42;;;;;;;0.87;0.70;;;19.40;44.20;;;;;;5002055;28;20494;-75
2023/01/11 11:50:20;;;;;;;1.10;0.60;;;19.40;44.20;;;;;;5013295;28;20484;-75
2023/01/11 11:52:52;;;;;;;0.80;0.70;;;19.40;44.20;;;;;;4996855;28;20424;-75
2023/01/11 11:55:23;;;;;;;0.80;0.70;;;19.40;44.20;;;;;;5001382;28;20427;-75
2023/01/11 11:57:48;;;;;;;3.33;0.80;;;19.50;44.20;;;;;;5016302;28;20414;-75
2023/01/11 12:00:38;;;;;;;0.80;0.70;;;19.40;44.20;;;;;;5015953;28;20431;-75
2023/01/11 12:03:13;;;;;;;0.70;0.70;;;19.50;44.20;;;;;;5013433;28;20680;-76
2023/01/11 12:05:56;;;;;;;0.90;0.70;;;19.50;44.20;;;;;;5002847;28;20971;-75
2023/01/11 12:08:23;;;;;;;0.70;0.70;;;19.50;44.20;;;;;;5013034;28;20953;-75
2023/01/11 12:10:53;;;;;;;0.67;0.57;;;19.50;44.20;;;;;;5016283;28;20773;-75
2023/01/11 12:13:29;;;;;;;1.00;0.80;;;19.50;44.20;;;;;;5014380;28;20776;-75
2023/01/11 12:16:19;;;;;;;0.90;0.60;;;19.50;44.20;;;;;;4998933;28;20437;-75
2023/01/11 12:18:46;;;;;;;0.80;0.60;;;19.50;44.20;;;;;;5001072;28;20929;-75
2023/01/11 12:21:27;;;;;;;0.87;0.60;;;19.50;44.20;;;;;;5000694;28;20421;-75
2023/01/11 12:24:22;;;;;;;0.77;0.60;;;19.50;44.20;;;;;;5011359;28;20415;-75
2023/01/11 12:27:27;;;;;;;0.60;0.60;;;19.50;44.20;;;;;;5008135;28;20729;-75
2023/01/11 12:29:59;;;;;;;0.80;0.70;;;19.50;44.20;;;;;;5011863;28;20461;-76
2023/01/11 12:32:53;;;;;;;0.63;0.57;;;19.50;44.20;;;;;;5001661;28;20437;-75
2023/01/11 12:35:48;;;;;;;0.67;0.67;;;19.50;44.20;;;;;;5003032;28;20397;-75
2023/01/11 12:38:40;;;;;;;0.70;0.70;;;19.50;44.20;;;;;;5015757;28;20498;-76
2023/01/11 12:41:46;;;;;;;0.83;0.67;;;19.50;44.20;;;;;;4996189;28;20433;-74
2023/01/11 12:44:20;;;;;;;0.63;0.60;;;19.50;44.20;;;;;;4979117;28;20421;-76
2023/01/11 12:47:23;;;;;;;0.93;0.70;;;19.50;44.30;;;;;;5012531;28;20924;-76
2023/01/11 12:50:01;;;;;;;1.07;0.60;;;19.50;44.20;;;;;;5014576;28;20753;-75
2023/01/11 12:52:52;;;;;;;1.00;0.90;;;19.50;44.20;;;;;;5016069;28;20424;-76
2023/01/11 12:55:23;;;;;;;0.80;0.70;;;19.50;44.20;;;;;;5013004;28;20502;-76
2023/01/11 12:58:04;;;;;;;0.80;0.60;;;19.50;44.20;;;;;;5016546;28;20962;-76
2023/01/11 13:01:05;;;;;;;0.80;0.80;;;19.50;44.20;;;;;;5015128;28;20419;-76
2023/01/11 13:04:08;;;;;;;0.90;0.70;;;19.50;44.20;;;;;;5017536;28;20513;-76
2023/01/11 13:06:48;;;;;;;0.90;0.70;;;19.50;44.20;;;;;;5020031;28;20788;-76
2023/01/11 13:09:55;;;;;;;1.00;0.90;;;19.50;44.20;;;;;;5017956;28;21174;-75
2023/01/11 13:12:34;;;;;;;1.03;0.80;;;19.50;44.20;;;;;;4920837;29;20831;-75
2023/01/11 13:15:23;;;;;;;0.70;0.60;;;19.50;44.20;;;;;;5007621;28;21276;-76
2023/01/11 13:17:58;;;;;;;1.83;0.77;;;19.50;44.20;;;;;;5000181;28;20694;-75
2023/01/11 13:20:40;;;;;;;1.00;0.67;;;19.50;44.20;;;;;;5016414;28;20442;-76
2023/01/11 13:23:19;;;;;;;0.70;0.70;;;19.50;44.20;;;;;;5016569;28;20482;-75
2023/01/11 13:25:47;;;;;;;0.87;0.80;;;19.50;44.20;;;;;;5013824;28;20422;-76
2023/01/11 13:28:31;;;;;;;0.87;0.60;;;19.50;44.20;;;;;;5015661;28;20961;-76
2023/01/11 13:31:01;;;;;;;0.77;0.70;;;19.50;44.20;;;;;;5013518;28;20507;-76
2023/01/11 13:33:31;;;;;;;0.80;0.70;;;19.50;44.20;;;;;;5014460;28;20609;-76
2023/01/11 13:36:05;;;;;;;1.37;0.77;;;19.50;44.20;;;;;;5015458;28;20471;-76
2023/01/11 13:38:41;;;;;;;0.70;0.60;;;19.50;44.20;;;;;;5016255;28;20444;-76
2023/01/11 13:41:20;;;;;;;0.90;0.80;;;19.50;44.20;;;;;;5012009;28;20470;-74
2023/01/11 13:43:58;;;;;;;1.07;0.73;;;19.50;44.20;;;;;;5016093;28;20419;-76
2023/01/11 13:46:29;;;;;;;0.70;0.63;;;19.50;44.20;;;;;;5012775;28;20437;-76
2023/01/11 13:49:03;;;;;;;0.83;0.70;;;19.50;44.20;;;;;;5013319;28;20453;-75